Time;durP1;ratioP1;P1;durP2;ratioP2;P2;SDS_P1;SDS_P2;PMS_P1;PMS_P2;Temp;Humidity;BMP_temperature;BMP_pressure;BME280_temperature;BME280_humidity;BME280_pressure;Samples;Min_cycle;Max_cycle;Signal;HPM_P1;HPM_P2
2023/09/08 00:00:38;;;;;;;;;43.75;37.25;;;;;30.48;100.00;100949.72;2094530;28;46241;-66
2023/09/08 00:01:38;;;;;;;;;44.50;37.25;;;;;30.48;100.00;100960.66;2095411;28;46567;-66
2023/09/08 00:02:38;;;;;;;;;43.50;36.00;;;;;30.47;100.00;100958.09;2095883;28;46255;-65
2023/09/08 00:03:39;;;;;;;;;40.50;34.75;;;;;30.49;99.90;100947.84;2096744;28;46564;-66
2023/09/08 00:04:39;;;;;;;;;40.25;34.25;;;;;30.47;100.00;100953.47;2096251;28;46690;-65
2023/09/08 00:05:39;;;;;;;;;38.75;33.50;;;;;30.48;99.95;100952.44;2096215;28;46580;-66
2023/09/08 00:06:40;;;;;;;;;38.00;33.50;;;;;30.44;100.00;100953.78;2096057;28;46714;-66
2023/09/08 00:07:42;;;;;;;;;34.60;30.00;;;;;30.47;100.00;100958.09;2087735;28;46295;-65
2023/09/08 00:08:43;;;;;;;;;35.00;31.80;;;;;30.47;100.00;100958.94;2107896;27;46300;-65
2023/09/08 00:09:43;;;;;;;;;36.25;31.75;;;;;30.45;100.00;100954.66;2112805;27;46182;-65
2023/09/08 00:10:44;;;;;;;;;37.50;34.00;;;;;30.44;100.00;100952.94;2112471;27;46391;-65
2023/09/08 00:11:44;;;;;;;;;37.00;32.25;;;;;30.43;100.00;100954.81;2113469;27;46379;-65
2023/09/08 00:12:44;;;;;;;;;33.50;30.75;;;;;30.45;100.00;100965.59;2108031;27;46309;-67
2023/09/08 00:13:44;;;;;;;;;37.00;33.00;;;;;30.42;100.00;100953.09;2095733;28;45624;-66
2023/09/08 00:14:45;;;;;;;;;32.50;30.50;;;;;30.44;100.00;100966.63;2095224;28;46587;-66
2023/09/08 00:15:45;;;;;;;;;40.75;33.50;;;;;30.41;100.00;100964.22;2097882;28;46263;-65
2023/09/08 00:16:45;;;;;;;;;36.50;31.75;;;;;30.42;100.00;100961.31;2104208;28;46455;-66
2023/09/08 00:17:47;;;;;;;;;33.75;31.00;;;;;30.43;100.00;100970.38;2102613;27;46496;-65
2023/09/08 00:18:47;;;;;;;;;33.40;31.00;;;;;30.42;100.00;100965.94;2096218;28;46759;-67
2023/09/08 00:19:47;;;;;;;;;33.00;31.00;;;;;30.42;100.00;100966.78;2104208;28;46674;-67
2023/09/08 00:20:48;;;;;;;;;37.75;33.00;;;;;30.40;100.00;100965.22;2104160;28;46274;-66
2023/09/08 00:21:49;;;;;;;;;34.50;30.25;;;;;30.41;100.00;100965.06;2096015;28;47117;-66
2023/09/08 00:22:49;;;;;;;;;39.40;33.20;;;;;30.40;100.00;100965.22;2102828;28;47052;-66
2023/09/08 00:23:50;;;;;;;;;38.00;33.50;;;;;30.39;100.00;100960.78;2104160;28;46857;-66
2023/09/08 00:24:50;;;;;;;;;35.00;31.00;;;;;30.40;100.00;100965.22;2104901;28;45885;-66
2023/09/08 00:25:51;;;;;;;;;34.50;31.00;;;;;30.38;100.00;100965.38;2104243;28;46842;-65
2023/09/08 00:26:51;;;;;;;;;36.00;32.25;;;;;30.36;100.00;100967.38;2104328;27;46429;-65
2023/09/08 00:27:51;;;;;;;;;34.00;31.00;;;;;30.37;100.00;100966.41;2104324;28;46802;-66
2023/09/08 00:28:52;;;;;;;;;38.25;34.00;;;;;30.36;100.00;100967.38;2108442;27;46479;-67
2023/09/08 00:29:52;;;;;;;;;32.00;29.25;;;;;30.34;100.00;100965.84;2112516;27;46547;-65
2023/09/08 00:30:53;;;;;;;;;34.50;30.75;;;;;30.35;100.00;100964.81;2112139;27;46079;-66
2023/09/08 00:31:53;;;;;;;;;33.75;30.50;;;;;30.33;100.00;100964.97;2103207;28;46182;-66
2023/09/08 00:32:53;;;;;;;;;33.00;31.00;;;;;30.34;100.00;100954.88;2094641;28;46324;-65
2023/09/08 00:33:54;;;;;;;;;37.75;33.25;;;;;30.33;100.00;100967.72;2103909;28;46401;-66
2023/09/08 00:34:54;;;;;;;;;36.50;32.75;;;;;30.32;100.00;100962.38;2104145;28;46718;-65
2023/09/08 00:35:57;;;;;;;;;37.75;33.00;;;;;30.31;100.00;100960.69;2103661;28;45929;-65
2023/09/08 00:36:57;;;;;;;;;37.40;33.00;;;;;30.31;100.00;100963.41;2104330;28;46430;-65
2023/09/08 00:37:57;;;;;;;;;39.00;33.25;;;;;30.30;100.00;100970.75;2095571;28;45994;-65
2023/09/08 00:38:57;;;;;;;;;38.75;34.75;;;;;30.24;100.00;100957.72;2095668;28;46167;-65
2023/09/08 00:39:58;;;;;;;;;39.25;34.00;;;;;30.23;100.00;100955.97;2104190;28;46727;-66
2023/09/08 00:41:00;;;;;;;;;40.50;34.75;;;;;30.25;100.00;100953.09;2104115;28;46365;-65
2023/09/08 00:42:00;;;;;;;;;43.40;36.40;;;;;30.27;100.00;100957.41;2103682;28;46718;-66
2023/09/08 00:43:01;;;;;;;;;46.00;38.25;;;;;30.27;100.00;100960.13;2104150;28;46447;-66
2023/09/08 00:44:01;;;;;;;;;47.25;38.75;;;;;30.29;100.00;100954.50;2104069;28;46304;-64
2023/09/08 00:45:02;;;;;;;;;45.75;37.50;;;;;30.29;100.00;100959.97;2103786;28;46210;-65
2023/09/08 00:46:03;;;;;;;;;43.75;35.75;;;;;30.25;100.00;100964.03;2104271;28;46228;-66
2023/09/08 00:47:03;;;;;;;;;41.25;35.50;;;;;30.26;100.00;100957.56;2102595;28;46250;-66
2023/09/08 00:48:04;;;;;;;;;38.75;34.00;;;;;30.28;100.00;100961.84;2103821;28;46835;-65
2023/09/08 00:49:05;;;;;;;;;42.50;34.75;;;;;30.26;100.00;100957.56;2095030;28;46310;-65
2023/09/08 00:50:06;;;;;;;;;37.20;32.60;;;;;30.26;100.00;100957.56;2089612;28;46977;-65
2023/09/08 00:51:09;;;;;;;;;39.25;33.50;;;;;30.25;100.00;100958.56;2103978;28;46548;-66
2023/09/08 00:52:10;;;;;;;;;43.20;36.00;;;;;30.24;100.00;100957.72;2109225;27;47316;-65
2023/09/08 00:53:10;;;;;;;;;44.50;37.25;;;;;30.24;100.00;100959.56;2116692;27;46557;-66
2023/09/08 00:54:10;;;;;;;;;43.25;36.25;;;;;30.22;100.00;100956.97;2121952;27;45121;-66
2023/09/08 00:55:11;;;;;;;;;43.50;36.50;;;;;30.21;100.00;100960.72;2122210;27;46258;-66
2023/09/08 00:56:12;;;;;;;;;43.75;37.75;;;;;30.22;100.00;100956.97;2123089;27;46848;-66
2023/09/08 00:57:12;;;;;;;;;44.25;37.50;;;;;30.21;100.00;100951.66;2113533;27;46643;-66
2023/09/08 00:58:13;;;;;;;;;42.00;35.50;;;;;30.21;100.00;100951.66;2118102;27;46856;-66
2023/09/08 00:59:13;;;;;;;;;39.25;34.25;;;;;30.20;100.00;100953.53;2122302;27;46490;-66
2023/09/08 01:00:14;;;;;;;;;41.00;35.50;;;;;30.20;100.00;100958.16;2121930;27;46265;-66
2023/09/08 01:01:14;;;;;;;;;40.25;33.50;;;;;30.17;100.00;100960.19;2121578;27;46348;-65
2023/09/08 01:02:15;;;;;;;;;37.75;33.25;;;;;30.16;100.00;100958.47;2119830;27;46219;-66
2023/09/08 01:03:15;;;;;;;;;39.25;33.00;;;;;30.16;100.00;100960.34;2113260;27;46366;-66
2023/09/08 01:04:15;;;;;;;;;42.25;35.25;;;;;30.16;100.00;100955.72;2113357;27;46327;-65
2023/09/08 01:05:16;;;;;;;;;38.75;34.25;;;;;30.17;100.00;100959.34;2122108;27;45877;-66
2023/09/08 01:06:17;;;;;;;;;39.25;33.75;;;;;30.17;100.00;100956.59;2120579;27;46979;-64
2023/09/08 01:07:19;;;;;;;;;36.60;32.80;;;;;30.18;100.00;100961.06;2122093;27;46575;-66
2023/09/08 01:08:20;;;;;;;;;43.00;36.20;;;;;30.16;100.00;100955.72;2112425;27;46808;-66
2023/09/08 01:09:21;;;;;;;;;41.40;36.20;;;;;30.18;100.00;100958.31;2104928;27;46351;-66
2023/09/08 01:10:21;;;;;;;;;38.25;33.25;;;;;30.18;100.00;100959.16;2113007;27;46327;-64
2023/09/08 01:11:22;;;;;;;;;41.50;35.75;;;;;30.17;100.00;100951.97;2121636;27;46049;-64
2023/09/08 01:12:23;;;;;;;;;39.80;34.40;;;;;30.17;100.00;100959.34;2121636;27;46782;-65
2023/09/08 01:13:23;;;;;;;;;35.75;33.00;;;;;30.16;100.00;100953.00;2121660;27;46525;-64
2023/09/08 01:14:26;;;;;;;;;42.00;35.75;;;;;30.17;100.00;100960.19;2121368;27;46296;-65
2023/09/08 01:15:27;;;;;;;;;37.80;33.40;;;;;30.17;100.00;100953.84;2122195;27;46477;-65
2023/09/08 01:16:27;;;;;;;;;35.75;32.50;;;;;30.17;100.00;100954.72;2121713;27;46491;-64
2023/09/08 01:17:28;;;;;;;;;35.50;32.25;;;;;30.17;100.00;100957.44;2121739;27;46332;-66
2023/09/08 01:18:28;;;;;;;;;32.25;30.00;;;;;30.12;100.00;100950.72;2112834;27;46414;-65
2023/09/08 01:19:29;;;;;;;;;40.00;35.00;;;;;30.14;100.00;100960.50;2104385;28;46221;-65
2023/09/08 01:20:50;;;;;;;;;35.50;32.00;;;;;30.15;100.00;100956.75;2112566;27;46937;-64
2023/09/08 01:22:03;;;;;;;;;37.00;31.40;;;;;30.16;100.00;100954.88;2113338;27;46514;-65
2023/09/08 01:23:18;;;;;;;;;39.80;34.00;;;;;30.15;100.00;100956.75;2121875;27;46531;-65
2023/09/08 01:24:24;;;;;;;;;38.60;33.20;;;;;30.13;100.00;100956.06;2121801;27;46847;-65
2023/09/08 01:25:25;;;;;;;;;36.60;32.40;;;;;30.12;100.00;100957.06;2120997;27;46872;-65
2023/09/08 01:26:31;;;;;;;;;33.40;30.20;;;;;30.11;100.00;100960.81;2112921;27;46296;-65
2023/09/08 01:27:34;;;;;;;;;37.40;33.00;;;;;30.13;100.00;100952.44;2113045;27;46951;-64
2023/09/08 01:28:37;;;;;;;;;34.80;31.80;;;;;30.12;100.00;100953.47;2121893;27;46449;-64
2023/09/08 01:29:39;;;;;;;;;33.80;30.40;;;;;30.14;100.00;100959.66;2121534;27;46725;-63
2023/09/08 01:30:40;;;;;;;;;34.60;31.60;;;;;30.09;100.00;100962.81;2112617;27;46549;-65
2023/09/08 01:31:40;;;;;;;;;34.75;31.00;;;;;30.10;100.00;100956.34;2112504;27;46415;-64
2023/09/08 01:32:41;;;;;;;;;37.25;32.75;;;;;30.08;100.00;100954.78;2121557;27;46483;-65
2023/09/08 01:33:42;;;;;;;;;33.75;31.25;;;;;30.08;100.00;100958.38;2121738;27;46932;-64
2023/09/08 01:34:43;;;;;;;;;33.00;30.40;;;;;30.05;100.00;100961.41;2122116;27;46594;-65
2023/09/08 01:35:43;;;;;;;;;34.50;29.75;;;;;30.05;100.00;100963.25;2121507;27;46699;-65
2023/09/08 01:36:45;;;;;;;;;31.00;29.50;;;;;30.58;100.00;100962.47;2119873;27;45565;-65
2023/09/08 01:37:48;;;;;;;;;32.40;30.60;;;;;30.19;100.00;100957.28;2122038;27;46768;-65
2023/09/08 01:38:48;;;;;;;;;35.00;31.80;;;;;30.13;100.00;100956.06;2121914;27;46573;-65
2023/09/08 01:39:48;;;;;;;;;35.00;31.25;;;;;30.10;100.00;100960.94;2112715;27;45591;-64
2023/09/08 01:40:48;;;;;;;;;37.50;32.50;;;;;30.09;100.00;100960.09;2112958;27;47038;-65
2023/09/08 01:41:49;;;;;;;;;31.25;29.00;;;;;30.08;100.00;100955.63;2121710;27;46430;-65
2023/09/08 01:42:49;;;;;;;;;35.50;32.00;;;;;30.08;100.00;100961.09;2121513;27;46271;-65
2023/09/08 01:43:50;;;;;;;;;36.50;32.50;;;;;30.07;100.00;100956.66;2121568;27;46548;-65
2023/09/08 01:44:50;;;;;;;;;35.75;32.75;;;;;30.07;100.00;100964.00;2120809;27;46280;-64
2023/09/08 01:45:50;;;;;;;;;38.25;33.25;;;;;30.07;100.00;100964.00;2121761;27;46860;-64
2023/09/08 01:46:56;;;;;;;;;34.25;31.25;;;;;30.12;100.00;100959.81;2121497;27;46701;-65
2023/09/08 01:47:56;;;;;;;;;36.00;31.40;;;;;30.07;100.00;100962.13;2119850;27;46528;-65
2023/09/08 01:48:57;;;;;;;;;41.00;34.50;;;;;30.04;100.00;100948.72;2102173;28;46525;-65
2023/09/08 01:49:57;;;;;;;;;35.00;32.00;;;;;30.04;100.00;100962.41;2104569;28;45550;-66
2023/09/08 01:50:57;;;;;;;;;37.00;32.50;;;;;30.04;100.00;100959.66;2122053;27;46224;-65
2023/09/08 01:51:58;;;;;;;;;32.00;29.75;;;;;30.04;100.00;100956.06;2120245;27;46398;-65
2023/09/08 01:52:58;;;;;;;;;37.25;31.50;;;;;30.03;100.00;100954.34;2121657;27;46234;-66
2023/09/08 01:53:58;;;;;;;;;34.25;31.50;;;;;30.05;100.00;100957.78;2113100;27;46840;-66
2023/09/08 01:54:59;;;;;;;;;32.50;29.00;;;;;30.07;100.00;100953.06;2117372;27;46540;-65
2023/09/08 01:55:59;;;;;;;;;34.75;31.25;;;;;30.02;100.00;100956.22;2121958;27;46317;-66
2023/09/08 01:56:59;;;;;;;;;29.00;28.00;;;;;30.02;100.00;100952.63;2122388;27;46335;-65
2023/09/08 01:58:00;;;;;;;;;32.50;30.50;;;;;30.03;100.00;100957.94;2121712;27;46433;-65
2023/09/08 01:59:00;;;;;;;;;31.25;29.50;;;;;30.02;100.00;100958.97;2112746;27;46549;-66
2023/09/08 02:00:01;;;;;;;;;32.00;28.75;;;;;30.01;100.00;100954.50;2112232;27;46225;-65
2023/09/08 02:01:05;;;;;;;;;36.25;32.00;;;;;30.02;100.00;100960.84;2112529;27;46988;-65
2023/09/08 02:02:06;;;;;;;;;33.40;30.40;;;;;30.00;100.00;100952.78;2113970;27;46605;-65
2023/09/08 02:03:06;;;;;;;;;33.25;30.25;;;;;30.01;100.00;100953.66;2113146;27;46708;-65
2023/09/08 02:04:06;;;;;;;;;32.00;30.50;;;;;30.04;100.00;100962.41;2112678;27;46170;-65
2023/09/08 02:05:10;;;;;;;;;33.25;30.75;;;;;30.00;100.00;100960.13;2121997;27;46235;-65
2023/09/08 02:06:10;;;;;;;;;33.40;31.00;;;;;29.98;100.00;100953.94;2122550;27;46364;-65
2023/09/08 02:07:10;;;;;;;;;32.50;30.00;;;;;29.96;100.00;100958.69;2122990;27;46816;-65
2023/09/08 02:08:12;;;;;;;;;35.75;31.00;;;;;29.93;100.00;100957.13;2123474;27;46372;-65
2023/09/08 02:09:14;;;;;;;;;30.60;29.60;;;;;29.95;100.00;100951.50;2121853;27;46969;-65
2023/09/08 02:10:14;;;;;;;;;32.00;29.40;;;;;29.93;100.00;100961.75;2114309;27;46600;-65
2023/09/08 02:11:14;;;;;;;;;28.00;26.75;;;;;29.87;100.00;100953.16;2118467;27;46724;-65
2023/09/08 02:12:15;;;;;;;;;30.50;29.25;;;;;29.86;100.00;100959.63;2123336;27;46446;-66
2023/09/08 02:13:15;;;;;;;;;29.00;28.25;;;;;29.83;100.00;100959.91;2122405;27;46230;-66
2023/09/08 02:14:15;;;;;;;;;31.75;29.00;;;;;29.82;100.00;100960.94;2122977;27;46653;-65
2023/09/08 02:15:17;;;;;;;;;29.00;28.00;;;;;29.81;100.00;100956.47;2123030;27;46232;-64
2023/09/08 02:16:17;;;;;;;;;31.20;29.60;;;;;29.82;100.00;100960.06;2122842;27;46940;-66
2023/09/08 02:17:18;;;;;;;;;30.00;28.75;;;;;29.81;100.00;100959.22;2123259;27;46516;-65
2023/09/08 02:18:18;;;;;;;;;28.50;27.50;;;;;29.80;100.00;100960.22;2123371;27;46253;-65
2023/09/08 02:19:18;;;;;;;;;33.75;30.50;;;;;29.80;100.00;100956.63;2122755;27;46463;-66
2023/09/08 02:20:19;;;;;;;;;31.75;29.50;;;;;29.79;100.00;100954.91;2123170;27;46395;-66
2023/09/08 02:21:19;;;;;;;;;31.50;29.75;;;;;29.80;100.00;100959.38;2123041;27;46325;-65
2023/09/08 02:22:19;;;;;;;;;28.00;27.75;;;;;29.80;100.00;100959.38;2123134;27;46184;-65
2023/09/08 02:23:20;;;;;;;;;34.75;31.50;;;;;29.83;100.00;100959.91;2122985;27;46805;-65
2023/09/08 02:24:20;;;;;;;;;31.50;27.75;;;;;29.86;100.00;100965.09;2121766;27;46267;-66
2023/09/08 02:25:23;;;;;;;;;26.25;26.25;;;;;29.87;100.00;100965.97;2123608;27;46478;-65
2023/09/08 02:26:26;;;;;;;;;31.60;28.40;;;;;29.85;100.00;100960.63;2123595;27;46798;-66
2023/09/08 02:27:26;;;;;;;;;29.40;27.20;;;;;29.92;100.00;100970.97;2122485;27;46327;-66
2023/09/08 02:28:27;;;;;;;;;32.00;29.75;;;;;29.96;100.00;100966.91;2123128;27;46517;-66
2023/09/08 02:29:27;;;;;;;;;29.50;28.25;;;;;29.94;100.00;100969.81;2123123;27;46319;-66
2023/09/08 02:30:28;;;;;;;;;27.75;27.00;;;;;29.89;100.00;100963.94;2123073;27;46094;-66
2023/09/08 02:31:28;;;;;;;;;28.25;27.75;;;;;29.88;100.00;100973.16;2123340;27;45519;-67
2023/09/08 02:32:28;;;;;;;;;29.25;28.25;;;;;29.88;100.00;100971.28;2122665;27;46807;-66
2023/09/08 02:33:29;;;;;;;;;29.50;28.25;;;;;29.87;100.00;100969.56;2123138;27;46685;-66
2023/09/08 02:34:29;;;;;;;;;29.25;28.50;;;;;29.86;100.00;100969.72;2123214;27;46783;-66
2023/09/08 02:35:29;;;;;;;;;28.00;27.00;;;;;29.83;100.00;100965.38;2123097;27;46641;-65
2023/09/08 02:36:29;;;;;;;;;29.50;28.75;;;;;29.78;100.00;100973.19;2122912;27;47023;-65
2023/09/08 02:37:30;;;;;;;;;32.75;30.50;;;;;29.87;100.00;100971.44;2123386;27;46827;-65
2023/09/08 02:38:30;;;;;;;;;29.00;28.25;;;;;29.85;100.00;100971.56;2123051;27;46518;-64
2023/09/08 02:39:32;;;;;;;;;29.00;28.25;;;;;29.86;100.00;100973.31;2123285;27;46093;-65
2023/09/08 02:40:34;;;;;;;;;28.20;28.00;;;;;29.87;100.00;100966.81;2113852;27;46425;-65
2023/09/08 02:41:34;;;;;;;;;31.80;29.00;;;;;29.87;100.00;100972.31;2104185;27;46575;-66
2023/09/08 02:42:34;;;;;;;;;32.00;29.25;;;;;29.86;100.00;100967.84;2105076;27;46360;-67
2023/09/08 02:43:35;;;;;;;;;29.75;27.75;;;;;29.84;100.00;100969.84;2105549;28;46273;-66
2023/09/08 02:44:35;;;;;;;;;29.50;28.75;;;;;29.86;100.00;100969.72;2113796;27;46796;-66
2023/09/08 02:45:35;;;;;;;;;33.25;31.00;;;;;29.85;100.00;100966.09;2122698;27;46596;-65
2023/09/08 02:46:36;;;;;;;;;32.00;29.25;;;;;29.85;100.00;100968.81;2122295;27;46349;-65
2023/09/08 02:47:36;;;;;;;;;25.50;25.50;;;;;29.85;100.00;100968.81;2122902;27;46934;-65
2023/09/08 02:48:37;;;;;;;;;29.75;28.00;;;;;29.85;100.00;100966.09;2122733;27;46587;-65
2023/09/08 02:49:37;;;;;;;;;26.60;26.20;;;;;29.81;100.00;100967.41;2122966;27;46883;-66
2023/09/08 02:50:38;;;;;;;;;28.25;25.50;;;;;29.82;100.00;100962.81;2114111;27;46511;-65
2023/09/08 02:51:38;;;;;;;;;31.50;28.00;;;;;29.81;100.00;100972.88;2110828;27;46369;-66
2023/09/08 02:52:39;;;;;;;;;32.75;30.25;;;;;29.78;100.00;100966.88;2105443;28;48382;-65
2023/09/08 02:53:39;;;;;;;;;29.75;28.75;;;;;29.76;100.00;100969.75;2111349;27;46347;-66
2023/09/08 02:54:39;;;;;;;;;30.00;28.75;;;;;29.74;100.00;100966.31;2122673;27;46746;-65
2023/09/08 02:55:40;;;;;;;;;31.00;29.50;;;;;29.74;100.00;100969.06;2095649;28;46600;-65
2023/09/08 02:56:40;;;;;;;;;40.50;34.50;;;;;29.73;100.00;100980.13;2095731;28;46326;-63
2023/09/08 02:57:40;;;;;;;;;37.00;32.50;;;;;29.73;100.00;100974.66;2113970;27;46375;-66
2023/09/08 02:58:41;;;;;;;;;29.00;26.00;;;;;29.73;100.00;100974.66;2122017;27;46375;-65
2023/09/08 02:59:41;;;;;;;;;32.75;29.50;;;;;30.17;100.00;100967.53;2113641;27;46804;-64
2023/09/08 03:00:41;;;;;;;;;30.75;29.00;;;;;29.91;100.00;100972.84;2113820;27;46340;-65
2023/09/08 03:01:42;;;;;;;;;32.75;30.00;;;;;29.83;100.00;100970.00;2104276;28;46104;-65
2023/09/08 03:02:42;;;;;;;;;30.75;29.25;;;;;29.77;100.00;100978.81;2104631;28;46622;-66
2023/09/08 03:03:42;;;;;;;;;27.75;27.50;;;;;29.73;100.00;100977.38;2104753;28;46304;-65
2023/09/08 03:04:43;;;;;;;;;27.50;26.25;;;;;29.64;100.00;100975.56;2104831;28;46405;-65
2023/09/08 03:05:43;;;;;;;;;28.50;27.75;;;;;29.67;100.00;100970.66;2104621;28;46357;-65
2023/09/08 03:06:43;;;;;;;;;28.75;26.75;;;;;29.65;100.00;100980.91;2087941;28;46281;-65
2023/09/08 03:07:47;;;;;;;;;29.00;27.25;;;;;29.69;100.00;100981.44;2087443;28;46189;-65
2023/09/08 03:08:48;;;;;;;;;33.40;29.20;;;;;29.68;100.00;100979.72;2105221;28;46662;-65
2023/09/08 03:09:48;;;;;;;;;32.25;29.75;;;;;29.66;100.00;100973.53;2104453;28;46222;-65
2023/09/08 03:10:49;;;;;;;;;28.00;27.75;;;;;29.65;100.00;100983.63;2104601;28;46427;-65
2023/09/08 03:11:49;;;;;;;;;27.25;27.25;;;;;29.67;100.00;100978.84;2104820;28;46412;-65
2023/09/08 03:12:49;;;;;;;;;29.25;28.25;;;;;29.69;100.00;100978.72;2103559;27;46220;-64
2023/09/08 03:13:50;;;;;;;;;32.25;27.25;;;;;29.66;100.00;100981.75;2104549;28;46175;-67
2023/09/08 03:14:50;;;;;;;;;28.50;27.00;;;;;29.65;100.00;100975.41;2104933;28;46707;-66
2023/09/08 03:15:50;;;;;;;;;31.25;29.00;;;;;29.65;100.00;100978.16;2104717;28;47163;-66
2023/09/08 03:16:51;;;;;;;;;27.75;27.50;;;;;29.67;100.00;100976.13;2104919;28;46736;-65
2023/09/08 03:17:51;;;;;;;;;28.50;27.25;;;;;29.70;100.00;100978.56;2103637;28;46282;-65
2023/09/08 03:18:51;;;;;;;;;32.00;28.75;;;;;29.69;100.00;100976.84;2104712;28;46436;-64
2023/09/08 03:19:51;;;;;;;;;31.00;28.75;;;;;29.70;100.00;100978.56;2096031;28;46128;-65
2023/09/08 03:20:52;;;;;;;;;31.00;29.00;;;;;29.70;100.00;100977.69;2096398;28;46404;-65
2023/09/08 03:21:52;;;;;;;;;31.00;27.00;;;;;29.70;100.00;100973.09;2104688;28;46733;-65
2023/09/08 03:22:52;;;;;;;;;28.50;27.00;;;;;29.66;100.00;100971.66;2103739;28;46662;-65
2023/09/08 03:23:53;;;;;;;;;26.00;25.75;;;;;29.67;100.00;100972.53;2096247;28;45824;-65
2023/09/08 03:24:54;;;;;;;;;25.00;25.00;;;;;29.65;100.00;100974.56;2096368;28;46326;-65
2023/09/08 03:25:54;;;;;;;;;30.75;29.00;;;;;29.63;100.00;100971.97;2104234;28;46654;-65
2023/09/08 03:26:54;;;;;;;;;28.75;26.50;;;;;29.62;100.00;100970.25;2104623;28;46940;-65
2023/09/08 03:27:54;;;;;;;;;27.25;26.75;;;;;29.59;100.00;100965.91;2112969;27;46823;-65
2023/09/08 03:28:55;;;;;;;;;26.00;26.00;;;;;29.58;100.00;100966.94;2103680;27;46385;-66
2023/09/08 03:29:55;;;;;;;;;29.50;25.50;;;;;29.59;100.00;100965.06;2096180;28;46461;-65
2023/09/08 03:30:55;;;;;;;;;26.25;26.25;;;;;29.56;100.00;100965.38;2098480;28;46281;-65
2023/09/08 03:31:56;;;;;;;;;29.25;27.00;;;;;29.57;100.00;100970.69;2088999;28;46254;-65
2023/09/08 03:32:56;;;;;;;;;29.50;27.75;;;;;29.58;100.00;100963.34;2096767;27;46253;-65
2023/09/08 03:33:56;;;;;;;;;25.75;25.75;;;;;29.58;100.00;100955.13;2122722;27;46710;-65
2023/09/08 03:34:57;;;;;;;;;30.00;29.00;;;;;29.58;100.00;100964.22;2122452;27;46803;-65
2023/09/08 03:35:57;;;;;;;;;29.50;28.00;;;;;29.58;100.00;100955.13;2122298;27;46417;-65
2023/09/08 03:36:57;;;;;;;;;29.50;28.00;;;;;29.58;100.00;100960.59;2113241;27;46385;-65
2023/09/08 03:37:58;;;;;;;;;29.00;28.50;;;;;29.57;100.00;100964.34;2113259;27;46722;-64
2023/09/08 03:38:58;;;;;;;;;31.25;29.75;;;;;29.56;100.00;100949.81;2120526;27;46484;-65
2023/09/08 03:39:59;;;;;;;;;30.25;27.75;;;;;29.66;100.00;100965.34;2122796;27;46886;-65
2023/09/08 03:40:59;;;;;;;;;27.50;27.50;;;;;29.63;100.00;100957.44;2123245;27;45893;-66
2023/09/08 03:42:01;;;;;;;;;30.00;28.00;;;;;29.59;100.00;100959.59;2122722;27;46661;-66
2023/09/08 03:43:01;;;;;;;;;25.60;25.40;;;;;29.58;100.00;100963.34;2113403;27;45964;-64
2023/09/08 03:44:01;;;;;;;;;30.50;29.00;;;;;29.59;100.00;100959.59;2112867;27;46431;-64
2023/09/08 03:45:02;;;;;;;;;29.75;28.50;;;;;29.57;100.00;100958.88;2112157;27;46731;-65
2023/09/08 03:46:02;;;;;;;;;28.00;27.00;;;;;29.58;100.00;100955.13;2113717;27;46690;-63
2023/09/08 03:47:03;;;;;;;;;25.00;23.50;;;;;29.59;100.00;100965.06;2122235;27;46647;-65
2023/09/08 03:48:03;;;;;;;;;29.75;28.75;;;;;29.59;100.00;100957.72;2122480;27;46706;-66
2023/09/08 03:49:03;;;;;;;;;29.75;28.25;;;;;29.57;100.00;100958.88;2120326;27;47078;-66
2023/09/08 03:50:04;;;;;;;;;30.75;27.75;;;;;29.61;100.00;100954.88;2104765;28;46297;-65
2023/09/08 03:51:05;;;;;;;;;29.25;26.50;;;;;29.63;100.00;100955.56;2105023;27;46275;-65
2023/09/08 03:52:05;;;;;;;;;27.75;26.25;;;;;29.65;100.00;100958.16;2104706;27;47064;-65
2023/09/08 03:53:06;;;;;;;;;31.75;29.50;;;;;29.64;100.00;100961.91;2106835;27;46623;-64
2023/09/08 03:54:06;;;;;;;;;28.00;27.75;;;;;29.64;100.00;100961.91;2122678;27;46716;-65
2023/09/08 03:55:06;;;;;;;;;26.25;26.25;;;;;29.62;100.00;100958.47;2122239;27;46242;-66
2023/09/08 03:56:07;;;;;;;;;25.50;25.50;;;;;29.62;100.00;100961.19;2122530;27;46780;-64
2023/09/08 03:57:07;;;;;;;;;28.00;25.75;;;;;29.65;100.00;100963.63;2122478;27;46768;-64
2023/09/08 03:58:07;;;;;;;;;26.00;26.00;;;;;29.60;100.00;100955.84;2122394;27;46350;-65
2023/09/08 03:59:08;;;;;;;;;23.75;22.75;;;;;29.58;100.00;100964.22;2122380;27;46589;-65
2023/09/08 04:00:10;;;;;;;;;29.50;27.50;;;;;29.56;100.00;100955.28;2122232;27;46931;-66
2023/09/08 04:01:10;;;;;;;;;29.40;27.80;;;;;29.54;100.00;100957.31;2120801;27;46231;-65
2023/09/08 04:02:11;;;;;;;;;27.75;26.50;;;;;29.57;100.00;100958.88;2120490;27;46289;-66
2023/09/08 04:03:11;;;;;;;;;30.75;28.75;;;;;29.57;100.00;100961.63;2119171;27;46236;-65
2023/09/08 04:04:11;;;;;;;;;27.00;25.25;;;;;29.56;100.00;100957.16;2116884;27;45572;-64
2023/09/08 04:05:12;;;;;;;;;30.25;27.00;;;;;29.56;100.00;100954.44;2121548;27;46261;-65
2023/09/08 04:06:12;;;;;;;;;29.25;27.75;;;;;29.55;100.00;100959.03;2122142;27;46512;-65
2023/09/08 04:07:12;;;;;;;;;28.50;27.75;;;;;29.54;100.00;100957.31;2122050;27;46838;-66
2023/09/08 04:08:12;;;;;;;;;28.50;27.50;;;;;29.56;100.00;100955.28;2121353;27;46267;-65
2023/09/08 04:09:13;;;;;;;;;25.00;25.00;;;;;29.54;100.00;100957.31;2122217;27;46288;-65
2023/09/08 04:10:13;;;;;;;;;26.75;26.25;;;;;29.55;100.00;100950.84;2113408;27;45591;-66
2023/09/08 04:11:14;;;;;;;;;27.75;27.50;;;;;29.55;100.00;100956.31;2108114;27;45714;-65
2023/09/08 04:12:14;;;;;;;;;27.50;27.25;;;;;29.56;100.00;100948.97;2113260;27;46652;-66
2023/09/08 04:13:14;;;;;;;;;32.25;29.00;;;;;29.54;100.00;100951.00;2113150;27;45044;-65
2023/09/08 04:14:14;;;;;;;;;29.00;28.00;;;;;29.55;100.00;100955.44;2121728;27;46241;-66
2023/09/08 04:15:15;;;;;;;;;30.25;27.00;;;;;29.55;100.00;100952.72;2122281;27;45444;-65
2023/09/08 04:16:15;;;;;;;;;28.00;27.50;;;;;29.55;100.00;100950.84;2122102;27;46850;-63
2023/09/08 04:17:15;;;;;;;;;27.00;26.00;;;;;29.54;100.00;100951.00;2121172;27;46461;-64
2023/09/08 04:18:16;;;;;;;;;27.00;25.50;;;;;29.50;100.00;100946.84;2122442;27;46809;-65
2023/09/08 04:19:16;;;;;;;;;29.75;27.75;;;;;29.47;100.00;100949.84;2112558;27;46635;-65
2023/09/08 04:20:17;;;;;;;;;29.25;27.25;;;;;29.47;100.00;100952.59;2113192;27;46962;-67
2023/09/08 04:21:17;;;;;;;;;25.75;25.00;;;;;29.46;100.00;100954.44;2122050;27;46506;-66
2023/09/08 04:22:17;;;;;;;;;26.75;26.25;;;;;29.47;100.00;100949.84;2121964;27;46187;-67
2023/09/08 04:23:18;;;;;;;;;25.25;23.50;;;;;29.49;100.00;100956.06;2122434;27;46553;-65
2023/09/08 04:24:18;;;;;;;;;22.00;22.00;;;;;29.48;100.00;100948.88;2116469;27;46473;-67
2023/09/08 04:25:18;;;;;;;;;25.25;24.25;;;;;29.48;100.00;100957.06;2114057;27;46329;-66
2023/09/08 04:26:18;;;;;;;;;26.75;26.75;;;;;29.48;100.00;100957.94;2122237;27;46155;-66
2023/09/08 04:27:19;;;;;;;;;25.50;25.00;;;;;29.49;100.00;100953.31;2113053;27;46240;-66
2023/09/08 04:28:19;;;;;;;;;30.25;27.75;;;;;29.49;100.00;100959.66;2113138;27;46170;-66
2023/09/08 04:29:20;;;;;;;;;28.25;27.00;;;;;29.50;100.00;100958.66;2100199;28;46726;-66
2023/09/08 04:30:21;;;;;;;;;26.50;26.50;;;;;29.48;100.00;100963.41;2103450;28;46721;-64
2023/09/08 04:31:21;;;;;;;;;25.40;25.40;;;;;29.49;100.00;100962.38;2114040;27;46544;-66
2023/09/08 04:32:22;;;;;;;;;23.50;23.50;;;;;29.47;100.00;100961.66;2119260;27;46920;-65
2023/09/08 04:33:23;;;;;;;;;24.00;23.75;;;;;29.44;100.00;100955.59;2116931;27;46742;-66